Terminal Aerodrome Forecast
Issued by NWS

Home | Current Version | Previous Version | Text Only | Print | Product List | Glossary On
Versions: 1 2 3 4 5 6 7 8 9 10 11 12 13 14 15
000
FTUS45 KGGW 311100
TAFSDY
TAF
KSDY 311120Z 3112/0112 04009KT 3SM BR OVC005
     FM311500 06010KT 4SM -SN OVC004
     FM311700 05015KT 1SM -SN BR OVC004
     FM010200 03010KT 2SM BR OVC004
     FM010600 VRB04KT 6SM BR BKN030
      AMD LTD TO CLD VIS AND WIND=

USA.gov is the U.S. government's official web portal to all federal, state and local government web resources and services.